Time;durP1;ratioP1;P1;durP2;ratioP2;P2;SDS_P1;SDS_P2;PMS_P1;PMS_P2;Temp;Humidity;BMP_temperature;BMP_pressure;BME280_temperature;BME280_humidity;BME280_pressure;Samples;Min_cycle;Max_cycle;Signal;HPM_P1;HPM_P2
2023/10/10 00:01:14;;;;;;;189.93;181.83;;;15.40;99.90;;;;;;5048321;28;20284;-72
2023/10/10 00:03:42;;;;;;;126.63;120.97;;;15.40;99.90;;;;;;5028987;28;20850;-72
2023/10/10 00:06:13;;;;;;;126.97;121.30;;;15.40;99.90;;;;;;5050963;28;20286;-72
2023/10/10 00:08:43;;;;;;;169.17;161.60;;;15.40;99.90;;;;;;5051424;28;20287;-72
2023/10/10 00:11:12;;;;;;;170.10;162.20;;;15.40;99.90;;;;;;5035469;28;20286;-72
2023/10/10 00:13:42;;;;;;;137.23;131.00;;;15.40;99.90;;;;;;5046910;28;20313;-72
2023/10/10 00:16:24;;;;;;;189.43;181.30;;;15.40;99.90;;;;;;5051178;28;20287;-72
2023/10/10 00:18:50;;;;;;;152.80;146.00;;;15.50;99.90;;;;;;5045208;28;20291;-72
2023/10/10 00:21:23;;;;;;;154.37;147.60;;;15.50;99.90;;;;;;5032884;28;20295;-72
2023/10/10 00:23:50;;;;;;;195.03;186.40;;;15.50;99.90;;;;;;5045861;28;20064;-72
2023/10/10 00:26:22;;;;;;;173.07;165.13;;;15.40;99.90;;;;;;5049265;28;20275;-72
2023/10/10 00:28:55;;;;;;;97.97;93.27;;;15.40;99.90;;;;;;5032382;28;20681;-72
2023/10/10 00:31:22;;;;;;;124.23;118.23;;;15.40;99.90;;;;;;5030406;28;20307;-72
2023/10/10 00:33:51;;;;;;;127.83;122.20;;;15.40;99.90;;;;;;5049116;28;20280;-72
2023/10/10 00:36:22;;;;;;;122.93;117.33;;;15.30;99.90;;;;;;5043834;28;20300;-72
2023/10/10 00:38:49;;;;;;;164.37;157.37;;;15.30;99.90;;;;;;5052144;28;20283;-72
2023/10/10 00:41:16;;;;;;;169.10;161.63;;;15.30;99.90;;;;;;5051785;28;20310;-72
2023/10/10 00:43:44;;;;;;;245.27;234.60;;;15.30;99.90;;;;;;5043294;28;20738;-72
2023/10/10 00:46:11;;;;;;;157.17;150.00;;;15.20;99.90;;;;;;5042095;28;20288;-72
2023/10/10 00:48:40;;;;;;;198.30;189.93;;;15.10;99.90;;;;;;5032912;28;20276;-72
2023/10/10 00:51:11;;;;;;;171.63;163.60;;;15.10;99.90;;;;;;5039277;28;20287;-72
2023/10/10 00:53:39;;;;;;;157.07;150.50;;;15.00;99.90;;;;;;5043124;28;20684;-72
2023/10/10 00:56:05;;;;;;;196.40;187.80;;;14.90;99.90;;;;;;5030904;28;20874;-72
2023/10/10 00:58:38;;;;;;;172.33;164.97;;;14.90;99.90;;;;;;5051487;28;20370;-72
2023/10/10 01:01:14;;;;;;;144.47;137.70;;;14.80;99.90;;;;;;5030291;28;20861;-72
2023/10/10 01:03:49;;;;;;;130.40;124.70;;;14.80;99.90;;;;;;5049091;28;20311;-72
2023/10/10 01:06:24;;;;;;;120.18;114.55;;;14.70;99.90;;;;;;5021134;28;20277;-72
2023/10/10 01:08:57;;;;;;;130.60;124.87;;;14.70;99.90;;;;;;5046878;28;20532;-72
2023/10/10 01:11:23;;;;;;;131.77;125.60;;;14.60;99.90;;;;;;5049104;28;20286;-72
2023/10/10 01:13:52;;;;;;;83.57;79.70;;;14.70;99.90;;;;;;5043362;28;21035;-72
2023/10/10 01:16:24;;;;;;;146.67;140.17;;;14.70;99.90;;;;;;5049791;28;20094;-72
2023/10/10 01:18:52;;;;;;;132.23;126.27;;;14.70;99.90;;;;;;5027833;28;20284;-72
2023/10/10 01:21:30;;;;;;;162.63;155.27;;;14.70;99.90;;;;;;5049232;28;20274;-72
2023/10/10 01:24:11;;;;;;;150.63;143.80;;;14.70;99.90;;;;;;5028248;28;20692;-71
2023/10/10 01:26:38;;;;;;;193.63;185.20;;;14.80;99.90;;;;;;5021432;28;20307;-72
2023/10/10 01:29:20;;;;;;;153.27;146.43;;;14.80;99.90;;;;;;5046194;28;20367;-72
2023/10/10 01:31:46;;;;;;;185.57;177.43;;;14.80;99.90;;;;;;5036706;28;20280;-72
2023/10/10 01:34:30;;;;;;;171.50;163.70;;;14.90;99.90;;;;;;5023328;28;20628;-72
2023/10/10 01:36:58;;;;;;;195.37;186.93;;;14.90;99.90;;;;;;5028084;28;20779;-72
2023/10/10 01:39:44;;;;;;;177.23;169.27;;;14.90;99.90;;;;;;5033600;28;20291;-72
2023/10/10 01:42:11;;;;;;;168.93;161.23;;;14.90;99.90;;;;;;5040641;28;20303;-72
2023/10/10 01:44:37;;;;;;;166.03;158.67;;;14.90;99.90;;;;;;5050767;28;20782;-72
2023/10/10 01:47:03;;;;;;;157.30;150.17;;;14.90;99.90;;;;;;5049372;28;20365;-72
2023/10/10 01:49:29;;;;;;;152.70;145.53;;;14.90;99.90;;;;;;5047763;28;20818;-72
2023/10/10 01:51:55;;;;;;;169.33;161.40;;;14.90;99.90;;;;;;5045120;28;20041;-72
2023/10/10 01:54:29;;;;;;;171.87;164.23;;;14.90;99.90;;;;;;5047634;28;20278;-72
2023/10/10 01:56:55;;;;;;;146.70;139.57;;;14.90;99.90;;;;;;5045630;28;21069;-72
2023/10/10 01:59:25;;;;;;;87.73;83.13;;;14.90;99.90;;;;;;5049957;28;20778;-72
2023/10/10 02:01:53;;;;;;;138.43;131.93;;;14.90;99.90;;;;;;5049533;28;20331;-72
2023/10/10 02:04:22;;;;;;;127.47;121.70;;;14.80;99.90;;;;;;5033046;28;20620;-72
2023/10/10 02:06:55;;;;;;;135.67;129.10;;;14.80;99.90;;;;;;5027692;28;20827;-72
2023/10/10 02:11:50;;;;;;;181.67;172.90;;;14.80;99.90;;;;;;5045554;28;20779;-72
2023/10/10 02:14:18;;;;;;;176.07;168.03;;;14.80;99.90;;;;;;5045825;28;20353;-72
2023/10/10 02:16:48;;;;;;;143.27;136.37;;;14.80;99.90;;;;;;5046571;28;20290;-72
2023/10/10 02:19:24;;;;;;;142.77;135.93;;;14.80;99.90;;;;;;5049970;28;20378;-72
2023/10/10 02:21:51;;;;;;;181.60;172.93;;;14.80;99.90;;;;;;5042629;28;20317;-72
2023/10/10 02:26:55;;;;;;;150.97;143.63;;;14.90;99.90;;;;;;5044311;28;20363;-72
2023/10/10 02:32:06;;;;;;;138.77;131.53;;;14.80;99.90;;;;;;5041377;28;20284;-72
2023/10/10 02:34:34;;;;;;;131.53;124.77;;;14.80;99.90;;;;;;5050413;28;20352;-72
2023/10/10 02:37:22;;;;;;;133.43;126.70;;;14.80;99.90;;;;;;5028558;28;20305;-72
2023/10/10 02:40:13;;;;;;;152.00;144.90;;;14.80;99.90;;;;;;5030071;28;20291;-72
2023/10/10 02:42:39;;;;;;;166.17;158.03;;;14.90;99.90;;;;;;5047142;28;20315;-72
2023/10/10 02:45:06;;;;;;;124.33;118.13;;;14.90;99.90;;;;;;5030216;28;21015;-72
2023/10/10 02:47:32;;;;;;;164.77;156.73;;;14.90;99.90;;;;;;5044780;28;20287;-72
2023/10/10 02:50:14;;;;;;;130.70;123.93;;;14.90;99.90;;;;;;5041314;28;20291;-72
2023/10/10 02:52:45;;;;;;;155.53;147.97;;;14.90;99.90;;;;;;5031549;28;20286;-72
2023/10/10 02:55:22;;;;;;;128.97;122.40;;;15.00;99.90;;;;;;5033140;28;20283;-73
2023/10/10 02:57:48;;;;;;;150.63;143.10;;;15.00;99.90;;;;;;5032765;28;20310;-72
2023/10/10 03:02:58;;;;;;;193.03;183.80;;;15.10;99.90;;;;;;5051871;28;20314;-72
2023/10/10 03:08:34;;;;;;;145.67;138.43;;;15.10;99.90;;;;;;5049978;28;20271;-72
2023/10/10 03:11:01;;;;;;;192.60;183.73;;;15.00;99.90;;;;;;5030339;28;20783;-72
2023/10/10 03:13:36;;;;;;;173.63;165.20;;;15.10;99.90;;;;;;5039296;28;20275;-72
2023/10/10 03:24:51;;;;;;;187.27;178.52;;;15.10;99.90;;;;;;5043338;28;20279;-72
2023/10/10 03:27:11;;;;;;;134.40;127.10;;;15.10;99.90;;;;;;5046504;28;20194;-72
2023/10/10 03:29:37;;;;;;;199.87;190.73;;;15.10;99.90;;;;;;5043537;28;20714;-72
2023/10/10 03:32:59;;;;;;;172.83;164.20;;;15.10;99.90;;;;;;5052539;28;20348;-72
2023/10/10 03:35:05;;;;;;;201.20;191.77;;;15.10;99.90;;;;;;5050717;28;20326;-72
2023/10/10 03:37:40;;;;;;;178.37;169.43;;;15.20;99.90;;;;;;5032713;28;20343;-72
2023/10/10 05:24:24;;;;;;;148.63;136.40;;;14.60;99.90;;;;;;5067197;28;20291;-72
2023/10/10 05:26:49;;;;;;;180.23;167.27;;;14.60;99.90;;;;;;5046861;28;20293;-72
2023/10/10 05:29:19;;;;;;;148.53;137.07;;;14.60;99.90;;;;;;5044323;28;20279;-73
2023/10/10 05:31:46;;;;;;;188.77;174.67;;;14.60;99.90;;;;;;5028078;28;20043;-73
2023/10/10 05:34:14;;;;;;;86.47;78.60;;;14.50;99.90;;;;;;5035177;28;20275;-73
2023/10/10 05:36:42;;;;;;;107.30;99.20;;;14.50;99.90;;;;;;5047342;28;20272;-73
2023/10/10 05:39:11;;;;;;;118.80;110.23;;;14.50;99.90;;;;;;5051782;28;20271;-72
2023/10/10 05:41:40;;;;;;;102.40;94.20;;;14.50;99.90;;;;;;5043884;28;20278;-72
2023/10/10 05:44:07;;;;;;;101.73;93.03;;;14.50;99.90;;;;;;5053804;28;20616;-72
2023/10/10 05:46:34;;;;;;;111.33;102.93;;;14.50;99.90;;;;;;5027702;28;20275;-72
2023/10/10 05:49:01;;;;;;;123.70;114.10;;;14.50;99.90;;;;;;5028518;28;20279;-72
2023/10/10 05:51:26;;;;;;;138.87;129.47;;;14.40;99.90;;;;;;5030622;28;20798;-72
2023/10/10 05:53:52;;;;;;;104.37;96.00;;;14.40;99.90;;;;;;5044574;28;20294;-72
2023/10/10 05:56:18;;;;;;;101.73;93.07;;;14.40;99.90;;;;;;5045139;28;20044;-72
2023/10/10 05:58:45;;;;;;;82.20;74.57;;;14.40;99.90;;;;;;5051089;28;20048;-72
2023/10/10 06:01:14;;;;;;;107.67;98.50;;;14.40;99.90;;;;;;5046292;28;20287;-72
2023/10/10 06:03:46;;;;;;;101.07;92.43;;;14.40;99.90;;;;;;5026424;28;20343;-72
2023/10/10 06:06:13;;;;;;;109.13;100.47;;;14.40;99.90;;;;;;5030408;28;20298;-74
2023/10/10 06:08:41;;;;;;;94.93;86.57;;;14.40;99.90;;;;;;5050851;28;20337;-74
2023/10/10 06:11:14;;;;;;;80.50;73.23;;;14.40;99.90;;;;;;5047912;28;20334;-74
2023/10/10 06:13:40;;;;;;;88.13;80.67;;;14.50;99.90;;;;;;5047186;28;20287;-74
2023/10/10 06:16:13;;;;;;;64.70;56.33;;;14.50;99.90;;;;;;5043084;28;20287;-73
2023/10/10 06:18:41;;;;;;;65.63;58.60;;;14.50;99.90;;;;;;5047931;28;20628;-74
2023/10/10 06:21:08;;;;;;;67.70;60.93;;;14.50;99.90;;;;;;5035957;28;20699;-74
2023/10/10 06:23:37;;;;;;;60.13;52.60;;;14.60;99.90;;;;;;5022747;28;20302;-73
2023/10/10 06:26:07;;;;;;;72.93;63.20;;;14.60;99.90;;;;;;5034852;28;20419;-73
2023/10/10 06:28:37;;;;;;;74.00;66.67;;;14.70;99.90;;;;;;5042870;28;20329;-73
2023/10/10 06:31:09;;;;;;;65.17;53.07;;;14.70;99.90;;;;;;5029870;28;20279;-73
2023/10/10 06:33:40;;;;;;;63.73;57.03;;;14.80;99.90;;;;;;5048306;28;20468;-73
2023/10/10 06:39:32;;;;;;;85.67;78.43;;;14.80;99.90;;;;;;5048737;28;20279;-73
2023/10/10 06:41:40;;;;;;;88.53;81.43;;;14.80;99.90;;;;;;5031675;28;21330;-74
2023/10/10 06:44:17;;;;;;;85.73;78.67;;;14.90;99.90;;;;;;5042463;28;20286;-73
2023/10/10 06:46:49;;;;;;;82.53;75.53;;;14.90;99.90;;;;;;5037214;28;20332;-73
2023/10/10 06:49:15;;;;;;;81.53;74.87;;;14.90;99.90;;;;;;5031195;28;20330;-74
2023/10/10 06:51:41;;;;;;;367.33;348.57;;;14.90;99.90;;;;;;5046171;28;20634;-73
2023/10/10 06:54:19;;;;;;;392.20;372.43;;;14.90;99.90;;;;;;5054089;28;20286;-73
2023/10/10 06:56:53;;;;;;;260.03;246.40;;;15.00;99.90;;;;;;5056634;28;20044;-73
2023/10/10 06:59:25;;;;;;;140.27;131.38;;;15.00;99.90;;;;;;5047063;28;20282;-73
2023/10/10 07:01:50;;;;;;;103.77;96.30;;;15.10;99.90;;;;;;5023468;28;20036;-73
2023/10/10 07:04:18;;;;;;;338.33;321.23;;;15.10;99.90;;;;;;5034897;28;20620;-73
2023/10/10 07:06:47;;;;;;;258.07;244.43;;;15.20;99.90;;;;;;5049171;28;20162;-74
2023/10/10 07:09:46;;;;;;;263.17;249.20;;;15.30;99.90;;;;;;5037512;28;20289;-74
2023/10/10 07:12:11;;;;;;;370.13;351.70;;;15.40;99.90;;;;;;5042302;28;20381;-74
2023/10/10 07:14:43;;;;;;;356.73;339.07;;;15.50;99.90;;;;;;5044142;28;20787;-74
2023/10/10 07:17:15;;;;;;;363.83;345.10;;;15.50;99.90;;;;;;5045947;28;20275;-74
2023/10/10 07:22:24;;;;;;;394.97;374.70;;;15.70;99.90;;;;;;5047404;28;20295;-73
2023/10/10 07:24:55;;;;;;;370.37;351.60;;;15.70;99.90;;;;;;5048152;28;20279;-73
2023/10/10 07:27:30;;;;;;;383.03;363.17;;;15.80;99.90;;;;;;5035570;28;20036;-73
2023/10/10 07:32:29;;;;;;;389.23;369.43;;;16.00;99.90;;;;;;5054801;28;20036;-74
2023/10/10 07:34:55;;;;;;;392.90;372.40;;;16.10;99.90;;;;;;5038034;28;20290;-73
2023/10/10 07:37:27;;;;;;;347.63;330.17;;;16.20;99.90;;;;;;5049214;28;20275;-73
2023/10/10 07:40:19;;;;;;;388.47;369.07;;;16.30;99.90;;;;;;5030027;28;20283;-73
2023/10/10 07:42:51;;;;;;;385.67;365.87;;;16.30;99.90;;;;;;5046835;28;20306;-73
2023/10/10 07:45:26;;;;;;;414.80;393.33;;;16.40;99.90;;;;;;5045496;28;20798;-73
2023/10/10 07:50:26;;;;;;;357.83;339.33;;;16.40;99.90;;;;;;5051895;28;20364;-73
2023/10/10 07:52:52;;;;;;;431.47;408.70;;;16.40;99.90;;;;;;5029321;28;20304;-73
2023/10/10 07:55:19;;;;;;;375.57;356.07;;;16.50;99.90;;;;;;5053406;28;20301;-73
2023/10/10 07:57:59;;;;;;;457.93;433.93;;;16.50;99.90;;;;;;5052013;28;20286;-73
2023/10/10 08:00:39;;;;;;;472.83;448.60;;;16.50;99.90;;;;;;5053438;28;20638;-73
2023/10/10 08:03:06;;;;;;;437.07;414.23;;;16.50;99.90;;;;;;5050158;28;20390;-73
2023/10/10 08:05:33;;;;;;;352.20;333.63;;;16.60;99.90;;;;;;5047925;28;20279;-73
2023/10/10 08:08:05;;;;;;;385.13;365.43;;;16.60;99.90;;;;;;5053022;28;20709;-73
2023/10/10 08:10:43;;;;;;;402.60;381.80;;;16.70;99.90;;;;;;5053596;28;20693;-73
2023/10/10 08:13:12;;;;;;;425.67;403.73;;;16.70;99.90;;;;;;5050380;28;20838;-73
2023/10/10 08:16:01;;;;;;;327.17;310.30;;;16.70;99.90;;;;;;5031028;28;20041;-74
2023/10/10 08:21:25;;;;;;;378.00;358.63;;;16.70;99.70;;;;;;5008198;28;20128;-74
2023/10/10 08:23:57;;;;;;;369.83;351.10;;;16.70;99.10;;;;;;5042343;28;20373;-74
2023/10/10 08:26:29;;;;;;;412.83;391.90;;;16.70;99.10;;;;;;5040588;28;20110;-74
2023/10/10 08:28:55;;;;;;;367.00;347.93;;;16.80;99.30;;;;;;5033473;28;20037;-73
2023/10/10 08:31:22;;;;;;;387.40;367.90;;;16.80;99.30;;;;;;5026242;28;20119;-73
2023/10/10 08:33:49;;;;;;;369.57;350.47;;;16.90;98.50;;;;;;5043581;28;20036;-74
2023/10/10 08:36:25;;;;;;;374.17;354.90;;;16.90;98.20;;;;;;5048059;28;20345;-74
2023/10/10 08:38:56;;;;;;;410.50;389.17;;;17.00;98.10;;;;;;5049643;28;20551;-73
2023/10/10 08:41:30;;;;;;;369.73;350.87;;;17.00;97.70;;;;;;5051206;28;20385;-73
2023/10/10 08:44:01;;;;;;;363.73;345.08;;;17.00;97.40;;;;;;5051433;28;20055;-73
2023/10/10 08:46:31;;;;;;;408.90;388.20;;;17.20;97.40;;;;;;5045203;28;20391;-73
2023/10/10 08:49:05;;;;;;;459.93;436.17;;;17.20;97.70;;;;;;5048933;28;20090;-74
2023/10/10 08:51:34;;;;;;;391.03;371.00;;;17.30;97.40;;;;;;5040478;28;20064;-73
2023/10/10 08:54:11;;;;;;;543.83;514.77;;;17.40;96.90;;;;;;5047185;28;20154;-74
2023/10/10 08:56:40;;;;;;;602.97;568.77;;;17.40;95.90;;;;;;5043944;28;20044;-74
2023/10/10 08:59:11;;;;;;;543.73;514.20;;;17.50;95.70;;;;;;5044963;28;20040;-73
2023/10/10 09:01:38;;;;;;;550.10;520.57;;;17.60;95.80;;;;;;5041753;28;20043;-74
2023/10/10 09:04:05;;;;;;;570.27;539.17;;;17.70;95.40;;;;;;5047350;28;20072;-74
2023/10/10 09:06:43;;;;;;;583.83;552.27;;;17.80;95.50;;;;;;5035939;28;20465;-73
2023/10/10 09:11:53;;;;;;;608.83;574.55;;;17.90;93.40;;;;;;5046136;28;20037;-73
2023/10/10 09:14:19;;;;;;;672.63;634.27;;;18.00;93.30;;;;;;5048301;28;20051;-73
2023/10/10 09:16:45;;;;;;;663.43;625.33;;;18.00;92.10;;;;;;5034575;28;20033;-73
2023/10/10 09:19:11;;;;;;;686.33;646.07;;;18.10;91.20;;;;;;5044682;28;20040;-73
2023/10/10 09:21:56;;;;;;;650.70;613.30;;;18.10;91.00;;;;;;5045027;28;20033;-73
2023/10/10 09:24:28;;;;;;;672.08;633.40;;;18.10;91.30;;;;;;5044704;28;20492;-73
2023/10/10 09:27:07;;;;;;;669.27;630.37;;;18.20;90.00;;;;;;5045703;28;20043;-73
2023/10/10 09:29:42;;;;;;;640.97;603.70;;;18.20;90.10;;;;;;5048240;28;20037;-73
2023/10/10 09:32:08;;;;;;;;;;;18.30;90.90;;;;;;5051913;28;20051;-73
2023/10/10 09:34:40;;;;;;;615.80;581.00;;;18.30;87.70;;;;;;5027485;28;19917;-73
2023/10/10 09:37:14;;;;;;;640.13;603.57;;;18.30;88.20;;;;;;5051524;28;20063;-73
2023/10/10 09:39:42;;;;;;;610.67;576.87;;;18.30;88.00;;;;;;5052996;28;20500;-73
2023/10/10 09:52:58;;;;;;;646.93;610.37;;;18.50;86.20;;;;;;5049110;28;20040;-73
2023/10/10 09:58:16;;;;;;;587.70;556.03;;;18.50;86.60;;;;;;5050954;28;20045;-73
2023/10/10 10:00:53;;;;;;;641.17;605.13;;;18.60;86.80;;;;;;5051182;28;20411;-74
2023/10/10 10:09:34;;;;;;;674.80;635.73;;;18.80;87.20;;;;;;5048509;28;20041;-73
2023/10/10 10:13:08;;;;;;;603.75;571.03;;;19.10;86.90;;;;;;5049938;28;20084;-73
2023/10/10 10:15:56;;;;;;;645.43;609.17;;;19.40;84.00;;;;;;4966161;28;20046;-72
2023/10/10 10:18:29;;;;;;;684.80;644.07;;;19.50;84.30;;;;;;5051939;28;20145;-73
2023/10/10 10:23:38;;;;;;;647.63;611.03;;;19.80;84.00;;;;;;5042180;28;20408;-74
2023/10/10 10:26:04;;;;;;;672.67;634.63;;;20.00;83.70;;;;;;5054872;28;20045;-74
2023/10/10 10:28:37;;;;;;;656.20;618.63;;;20.00;83.00;;;;;;5048293;28;20037;-75
2023/10/10 10:31:28;;;;;;;711.13;669.27;;;20.10;82.80;;;;;;5039268;28;20504;-74
2023/10/10 10:34:08;;;;;;;751.43;705.73;;;20.20;81.70;;;;;;5031441;28;20040;-75
2023/10/10 10:36:42;;;;;;;736.70;689.07;;;20.20;81.80;;;;;;5031424;28;20033;-74
2023/10/10 10:39:34;;;;;;;729.55;684.92;;;20.20;82.40;;;;;;5055321;28;20044;-75
2023/10/10 10:42:11;;;;;;;763.27;713.90;;;20.30;82.60;;;;;;5048286;28;20079;-74
2023/10/10 10:44:54;;;;;;;754.75;707.10;;;20.50;81.60;;;;;;5047453;28;20041;-74
2023/10/10 10:47:37;;;;;;;769.10;720.30;;;20.70;80.70;;;;;;5046455;28;20116;-74
2023/10/10 10:50:17;;;;;;;733.33;687.73;;;20.80;80.10;;;;;;5052228;28;20447;-74
2023/10/10 10:52:55;;;;;;;706.87;665.17;;;21.00;80.00;;;;;;5067726;28;20055;-73
2023/10/10 10:55:28;;;;;;;798.07;742.70;;;21.10;80.40;;;;;;5031448;28;20040;-74
2023/10/10 11:03:33;;;;;;;794.03;743.43;;;20.90;77.60;;;;;;5067903;28;20040;-75
2023/10/10 11:06:09;;;;;;;872.57;780.63;;;20.80;79.60;;;;;;5033175;28;20135;-74
2023/10/10 11:13:54;;;;;;;789.20;740.10;;;20.70;79.90;;;;;;5051382;28;20037;-74
2023/10/10 11:16:39;;;;;;;825.87;772.57;;;20.60;79.70;;;;;;5032379;28;20170;-74
2023/10/10 11:19:25;;;;;;;848.27;792.17;;;20.60;80.10;;;;;;5052749;28;20052;-73
2023/10/10 11:21:54;;;;;;;795.50;745.17;;;20.60;80.40;;;;;;5038217;28;20139;-74
2023/10/10 11:24:25;;;;;;;829.60;772.70;;;20.60;80.00;;;;;;5037929;28;20056;-73
2023/10/10 11:27:07;;;;;;;829.27;774.70;;;20.60;80.00;;;;;;5027923;28;20036;-73
2023/10/10 11:29:42;;;;;;;841.53;784.20;;;20.50;80.30;;;;;;5049079;28;20388;-74
2023/10/10 11:32:11;;;;;;;819.50;766.73;;;20.30;81.00;;;;;;5045971;28;20068;-74
2023/10/10 11:34:44;;;;;;;806.80;755.03;;;20.30;81.30;;;;;;5051295;28;20045;-74
2023/10/10 11:37:20;;;;;;;795.57;743.57;;;20.30;82.00;;;;;;5069559;28;20068;-74
2023/10/10 11:39:47;;;;;;;806.40;750.10;;;20.30;82.30;;;;;;5045599;28;20053;-75
2023/10/10 11:42:47;;;;;;;733.67;689.27;;;20.50;81.80;;;;;;5047510;28;20507;-74
2023/10/10 11:45:26;;;;;;;771.47;723.40;;;20.60;82.00;;;;;;5058311;28;20396;-75
2023/10/10 11:48:05;;;;;;;740.13;695.20;;;20.70;81.80;;;;;;5032933;28;20045;-75
2023/10/10 11:50:50;;;;;;;779.13;731.30;;;20.90;81.20;;;;;;5039912;28;20583;-75
2023/10/10 11:53:24;;;;;;;794.63;745.50;;;20.90;80.70;;;;;;5056490;28;20044;-75
2023/10/10 11:55:55;;;;;;;616.97;582.53;;;21.00;80.70;;;;;;5052399;28;20044;-74
2023/10/10 11:58:36;;;;;;;600.03;567.63;;;21.10;80.90;;;;;;5065527;28;20105;-74
2023/10/10 12:01:05;;;;;;;633.70;598.30;;;21.30;81.10;;;;;;5055444;28;20036;-74
2023/10/10 12:06:26;;;;;;;540.23;511.80;;;21.40;80.10;;;;;;5024774;28;20036;-74
2023/10/10 12:08:54;;;;;;;502.37;476.90;;;21.30;79.70;;;;;;5050027;28;20044;-74
2023/10/10 12:11:20;;;;;;;425.47;402.07;;;21.20;79.90;;;;;;5054573;28;20040;-75
2023/10/10 12:13:51;;;;;;;851.53;796.60;;;21.00;80.60;;;;;;5038879;28;20041;-75
2023/10/10 12:16:27;;;;;;;850.47;793.93;;;21.00;81.30;;;;;;5053046;28;20385;-75
2023/10/10 12:18:53;;;;;;;832.10;777.83;;;20.90;81.50;;;;;;5057592;28;20067;-75
2023/10/10 12:21:20;;;;;;;815.93;764.40;;;20.80;81.80;;;;;;5050461;28;20083;-74
2023/10/10 12:23:56;;;;;;;809.13;757.33;;;20.70;82.20;;;;;;5055407;28;20145;-73
2023/10/10 12:26:36;;;;;;;589.90;558.23;;;20.60;82.50;;;;;;5066674;28;20035;-74
2023/10/10 12:29:02;;;;;;;738.83;694.47;;;20.60;82.50;;;;;;5052762;28;20567;-73
2023/10/10 12:31:33;;;;;;;717.63;674.70;;;20.60;83.20;;;;;;5050482;28;20071;-73
2023/10/10 12:34:00;;;;;;;653.03;615.53;;;20.70;83.20;;;;;;5048817;28;20047;-73
2023/10/10 12:36:29;;;;;;;761.57;714.73;;;20.60;82.10;;;;;;5053715;28;20032;-73
2023/10/10 12:38:59;;;;;;;732.10;688.23;;;20.60;82.40;;;;;;5074435;28;20044;-73
2023/10/10 12:41:27;;;;;;;724.30;680.67;;;20.60;82.70;;;;;;5060040;28;20036;-74
2023/10/10 12:43:54;;;;;;;760.27;714.03;;;20.60;83.20;;;;;;5051350;28;20124;-74
2023/10/10 12:46:22;;;;;;;718.43;676.07;;;20.50;83.40;;;;;;5037003;28;20119;-74
2023/10/10 12:48:51;;;;;;;714.47;672.30;;;20.60;83.60;;;;;;5039020;28;20858;-74
2023/10/10 12:51:19;;;;;;;753.83;708.47;;;20.60;83.80;;;;;;5054675;28;20057;-74
2023/10/10 12:53:45;;;;;;;746.13;700.40;;;20.70;83.60;;;;;;5046609;28;20183;-72
2023/10/10 12:56:16;;;;;;;858.90;801.30;;;20.70;83.30;;;;;;5046475;28;20132;-74
2023/10/10 12:58:43;;;;;;;698.00;657.20;;;20.70;82.80;;;;;;5044589;28;20770;-72
2023/10/10 13:01:15;;;;;;;760.80;713.43;;;20.70;82.80;;;;;;5048012;28;20041;-73
2023/10/10 13:03:47;;;;;;;717.40;674.20;;;20.90;83.00;;;;;;5051202;28;20053;-74
2023/10/10 13:06:13;;;;;;;752.53;706.13;;;21.00;82.80;;;;;;5050887;28;20064;-73
2023/10/10 13:08:39;;;;;;;714.67;673.03;;;21.10;82.10;;;;;;5042883;28;20033;-74
2023/10/10 13:11:14;;;;;;;723.87;680.40;;;21.30;81.10;;;;;;5045855;28;20535;-72
2023/10/10 13:13:52;;;;;;;701.47;660.43;;;21.30;80.90;;;;;;5052376;28;20045;-73
2023/10/10 13:16:23;;;;;;;706.37;664.50;;;21.30;80.30;;;;;;5034341;28;20063;-74
2023/10/10 13:18:53;;;;;;;733.93;690.13;;;21.30;80.40;;;;;;5051907;28;20040;-74
2023/10/10 13:21:19;;;;;;;735.27;691.53;;;21.30;81.00;;;;;;5046108;28;20421;-74
2023/10/10 13:23:47;;;;;;;882.80;797.43;;;21.30;81.50;;;;;;5050317;28;20041;-75
2023/10/10 13:26:13;;;;;;;686.00;645.47;;;21.30;80.70;;;;;;5046689;28;20044;-75
2023/10/10 13:28:44;;;;;;;710.03;668.20;;;21.30;80.90;;;;;;5027886;28;20120;-75
2023/10/10 13:31:14;;;;;;;723.57;679.30;;;21.20;81.10;;;;;;5051529;28;20251;-75
2023/10/10 13:33:41;;;;;;;696.77;654.67;;;21.20;81.50;;;;;;5048231;28;20041;-74
2023/10/10 13:36:15;;;;;;;684.80;644.20;;;21.10;81.10;;;;;;5027685;28;20051;-74
2023/10/10 13:38:50;;;;;;;676.63;637.47;;;21.10;81.20;;;;;;5028881;28;20044;-74
2023/10/10 13:41:21;;;;;;;674.58;634.88;;;21.10;81.60;;;;;;5038135;28;20044;-75
2023/10/10 13:43:47;;;;;;;707.83;666.03;;;21.10;81.50;;;;;;5047463;28;20045;-74
2023/10/10 13:46:15;;;;;;;691.57;649.77;;;21.10;81.40;;;;;;5042691;28;20072;-73
2023/10/10 13:48:41;;;;;;;682.57;641.53;;;21.00;80.70;;;;;;5041429;28;20044;-73
2023/10/10 13:51:07;;;;;;;649.83;612.60;;;20.90;80.50;;;;;;5037690;28;20045;-75
2023/10/10 13:53:34;;;;;;;663.63;625.20;;;20.90;81.00;;;;;;5047447;28;20048;-74
2023/10/10 13:56:03;;;;;;;656.50;616.77;;;20.70;81.10;;;;;;5045918;28;20053;-74
2023/10/10 13:58:29;;;;;;;658.50;620.87;;;20.70;80.80;;;;;;5042335;28;20049;-74
2023/10/10 14:00:55;;;;;;;631.30;595.40;;;20.60;81.60;;;;;;5040119;28;20037;-73
2023/10/10 14:03:35;;;;;;;661.73;624.33;;;20.70;81.80;;;;;;5033384;28;20041;-74
2023/10/10 14:06:08;;;;;;;625.43;590.13;;;20.70;82.10;;;;;;5047138;28;20042;-74
2023/10/10 14:08:34;;;;;;;679.63;638.00;;;20.70;81.60;;;;;;5047341;28;20040;-74
2023/10/10 14:11:00;;;;;;;589.63;556.70;;;20.70;80.90;;;;;;5049748;28;20118;-74
2023/10/10 14:13:27;;;;;;;667.50;628.60;;;20.70;81.80;;;;;;5017749;28;20041;-74
2023/10/10 14:15:57;;;;;;;648.00;610.80;;;20.70;81.60;;;;;;5018760;28;20037;-73
2023/10/10 14:18:31;;;;;;;509.43;482.47;;;20.70;81.70;;;;;;5026208;28;20029;-74
2023/10/10 14:21:01;;;;;;;464.52;439.20;;;20.70;82.10;;;;;;5043048;28;20451;-74
2023/10/10 14:23:29;;;;;;;512.30;484.67;;;20.80;81.30;;;;;;5043852;28;20080;-74
2023/10/10 14:26:43;;;;;;;541.00;511.87;;;20.80;81.50;;;;;;5042079;28;20075;-74
2023/10/10 14:28:51;;;;;;;518.77;491.50;;;20.80;81.50;;;;;;5041057;28;20041;-74
2023/10/10 14:31:23;;;;;;;415.60;394.13;;;20.70;81.30;;;;;;5046832;28;20135;-74
2023/10/10 14:33:54;;;;;;;524.57;497.00;;;20.70;81.70;;;;;;5042212;28;20045;-74
2023/10/10 14:36:21;;;;;;;580.50;548.00;;;20.60;81.80;;;;;;5041376;28;20088;-74
2023/10/10 14:38:51;;;;;;;445.50;421.03;;;20.50;81.50;;;;;;5034850;28;20044;-73
2023/10/10 14:41:19;;;;;;;424.43;402.47;;;20.40;82.10;;;;;;5040130;28;20040;-74
2023/10/10 14:43:51;;;;;;;449.03;425.57;;;20.30;82.30;;;;;;5030337;28;20460;-74
2023/10/10 14:46:21;;;;;;;462.80;438.67;;;20.30;82.60;;;;;;5041629;28;20041;-74
2023/10/10 14:49:06;;;;;;;491.07;464.10;;;20.20;82.50;;;;;;5048547;28;20090;-73
2023/10/10 14:51:35;;;;;;;;;;;20.20;82.60;;;;;;5041262;28;20077;-74
2023/10/10 14:54:11;;;;;;;699.63;649.33;;;20.20;82.70;;;;;;5046597;28;19921;-73
2023/10/10 14:56:45;;;;;;;740.50;683.53;;;20.20;82.70;;;;;;5048363;28;20072;-73
2023/10/10 14:59:17;;;;;;;563.90;530.83;;;20.00;82.60;;;;;;5034885;28;20484;-73
2023/10/10 15:01:47;;;;;;;491.77;464.83;;;20.00;83.00;;;;;;5034083;28;20492;-73
2023/10/10 15:04:17;;;;;;;487.10;461.30;;;19.90;83.30;;;;;;5037041;28;20123;-73
2023/10/10 15:06:43;;;;;;;510.60;481.43;;;19.90;83.40;;;;;;5034958;28;20062;-73
2023/10/10 15:09:19;;;;;;;437.90;414.83;;;19.80;83.50;;;;;;5075182;28;20033;-72
2023/10/10 15:11:47;;;;;;;445.70;422.73;;;19.80;83.70;;;;;;5053516;28;20052;-73
2023/10/10 15:14:14;;;;;;;533.23;504.33;;;19.80;83.80;;;;;;5045587;28;20084;-73
2023/10/10 15:16:41;;;;;;;464.63;441.03;;;19.70;84.10;;;;;;5036149;28;20045;-73
2023/10/10 15:19:07;;;;;;;501.53;475.87;;;19.70;84.10;;;;;;5048415;28;20405;-73
2023/10/10 15:21:38;;;;;;;518.97;490.73;;;19.70;84.50;;;;;;5035325;28;20044;-73
2023/10/10 15:24:11;;;;;;;475.47;451.53;;;19.70;84.60;;;;;;5044020;28;20104;-73
2023/10/10 15:26:37;;;;;;;454.90;432.53;;;19.70;84.80;;;;;;5026017;28;20037;-73
2023/10/10 15:29:03;;;;;;;489.00;463.37;;;19.70;84.90;;;;;;5048008;28;20059;-73
2023/10/10 15:31:31;;;;;;;483.83;459.33;;;19.60;85.00;;;;;;5043320;28;20041;-73